Share

Providenciales, Turks Islands

Providenciales International (MBPV) Elev 16 ft | 21.77 °N, 72.27 °W | Change Station

Current weather conditions updated 49 minutes ago

Scattered Clouds
Scattered Clouds
82 °F
Feels Like 87 °F
N
13
Wind Variable Wind from East
Sunrise 6:26 AM
Sunset 7:10 PM
Moon Waning Gibbous

Tomorrow is forecast to be Cooler than today. Isolated thunderstorms tomorrow night.

Pressure 29.98 in
Visibility 6.2 miles
Clouds Scattered Clouds 1500 ft
Heat Index 87 °F
Dew Point 72 °F
Humidity 70%
Rainfall 0.00 in
Snow Depth Not available.
UV 1 out of 16
Pollen Not available.
Air Quality Not available.
Flu Activity Not available.
METAR MBPV 192200Z 10011KT 9999 SCT015 28/22 Q1015

More Conditions Fewer Conditions

Pressure 29.98 in
Visibility 6.2 miles
Clouds Scattered Clouds 1500 ft
Heat Index 87 °F
Dew Point 72 °F
Humidity 70%
Rainfall 0.00 in
Snow Depth Not available.
UV 1 out of 16
Pollen Not available.
Air Quality Not available.
Flu Activity Not available.
METAR MBPV 192200Z 10011KT 9999 SCT015 28/22 Q1015

More Conditions Fewer Conditions

10-Day Weather Forecast

Almanac

Astronomy

Apr. 19, 2014 Rise Set
Actual Time 6:26 AM EDT 7:10 PM EDT
Civil Twilight 6:03 AM EDT 7:33 PM EDT
Nautical Twilight 5:36 AM EDT 8:00 PM EDT
Astronomical Twilight 5:09 AM EDT 8:27 PM EDT
Moon 11:33 PM EDT 9:58 AM EDT
Length of Visible Light 13h 29m
Length of Day
12h 43m
Tomorrow will be 1m 9s longer.
Waning Gibbous, 76% of the Moon is Illuminated
Today
Waning Gibbous
Apr 22
Last Quarter
Apr 29
New
May 6
First Quarter
May 14
Full

Today's Extremes

Country Highs Country Lows

Community

  • Happy Easter WU friends!!!!
    Happy Easter WU friends!!!!
  • Skirting the Horizon
    Skirting the Horizon
  • Piriapolis
    Piriapolis
  • A Glorious Morning
    A Glorious Morning
  • Tender Rays Of Hope
    Tender Rays Of Hope

WunderPhotos

Upload Photos

1,702,944 photos uploaded!

WunderBlogs® & News

Nearby

Snow Depth

Not available.

Coastal Water Temperatures

Place Temperature
No Stations Reporting

Earthquake Activity

City Distance Mag. Time & Date
No recent earthquake activity has been reported nearby.
Minimum magnitude displayed is 2.5.

Nearby Weather Stations

Station Location Temp. Heat Index Dew Point Humidity Wind Precip. Elev Updated Type
The Regent Grand, Grace Bay 80.0 °F 78 °F - - ENE  at  17.0 mph 0.00 in / hr 0 ft 6:48 PM EDT Normal
Pine Cay Weather, GeekHo 81.0 °F 85 °F 71 °F 72% ESE  at  18.0 mph - / hr 40 ft 6:49 PM EDT Normal

Show More Stations Show Fewer Stations

What do you think?

We're not finished. Please let us know what you like, what you don't like, and what you are still missing.